AirNav   Bose Proflight or Bose A20?
 
 271 users online  

MO91 Barnes Jewish Hospital Heliport
St Louis, Missouri, USA

GOING TO ST LOUIS?


FAA INFORMATION EFFECTIVE 20 JUNE 2019

Location

FAA Identifier: MO91
Lat/Long: 38-38-10.5400N / 090-15-57.2900W
38-38.175667N / 090-15.954833W
38.6362611 / -90.2659139
(estimated)
Elevation: 513 ft. / 156 m (estimated)
Variation: 01E (1990)
Time zone: UTC -5 (UTC -6 during Standard Time)
Zip code: 63110

Heliport Operations

Heliport use: Private use, MEDICAL USE.
Activation date: 06/1991
Control tower: no
ARTCC: KANSAS CITY CENTER
FSS: SAINT LOUIS FLIGHT SERVICE STATION
Attendance: CONTINUOUS
Wind indicator: yes
Segmented circle: no
Lights: ACTVT PERIMETER LGTS - 123.10.

Heliport Communications

WX ASOS at CPS (7 nm SE): PHONE 618-332-0001
WX ASOS at STL (8 nm NW): PHONE 314-890-4790
WX ASOS at SUS (18 nm W): 134.8 (314-890-7255)
WX AWOS-3 at ALN (18 nm NE): 128.0 (618-259-7231)
WX ASOS at SET (19 nm NW): 118.075 (636-250-4590)

Nearby radio navigation aids

VOR radial/distance  VOR name  Freq  Var
STLr142/16.8ST LOUIS VORTAC117.4001E
TOYr245/17.4TROY VORTAC116.0004E
FTZr091/33.2FORISTELL VORTAC110.8005E

 
NDB name  Hdg/Dist  Freq  Var  ID
ZUMAY177/9.140401WST ... -
ACORE306/11.935000ECP -.-. .--.
EAVES102/13.422701WFZ ..-. --..
OBLIO136/13.933801WLM .-.. --
CIVIC MEMORIAL214/18.226301WCVM -.-. ...- --

Heliport Services

Runway Information

Helipad H1

Dimensions: 40 x 40 ft. / 12 x 12 m
Surface: concrete
Runway edge lights: PERI
Latitude: 38-38.175667N
Longitude: 090-15.954833W
Elevation: 513.0 ft.
Traffic pattern: leftleft

Heliport Ownership and Management from official FAA records

Ownership: Privately-owned
Owner: BARNES JEWISH HOSPITAL
ONE BARNES JEWISH PLAZA
ST LOUIS, MO 63110
Phone 314-747-3000
Manager: RICK HAAS
ONE BARNES JEWISH PLAZA
ST LOUIS, MO 63110
Phone 314-747-3000

Heliport Operational Statistics

Aircraft based on the field: 1
Helicopters: 1
    

Additional Remarks

A52-H1 220 FT TWR 150 FT NORTH & 20 FT PEDESTRIAN BRIDGE 100 FT EAST OF HELIPAD.
OWNER DESIRES HELIPAD NOT BE CHARTED.
FOR CD CTC ST LOUIS APCH AT 314-890-1018.

Instrument Procedures

There are no published instrument procedures at MO91.

Some nearby airports with instrument procedures:

KCPS - St Louis Downtown Airport (7 nm SE)
KSTL - St Louis Lambert International Airport (8 nm NW)
1H0 - Creve Coeur Airport (13 nm NW)
KSUS - Spirit of St Louis Airport (18 nm W)
KALN - St Louis Regional Airport (18 nm NE)
KSET - St Charles County Smartt Airport (19 nm NW)
 
Loc | Ops | Rwys | IFR | FBO | Links
Com | Nav | Svcs | Stats | Notes

Kansas City Aviation Department
 
Area around MO91 (Barnes Jewish Hospital Heliport)
 
Road maps at: MapQuest Bing Google
 
Aerial photo
No photo
 
Sectional chart

 
Airport distance calculator
Flying to Barnes Jewish Hospital Heliport? Find the distance to fly.

From to MO91

Sunrise and sunset
Times for 20-Jun-2019
 Local
(UTC-5)
 Zulu
(UTC)
Morning civil twilight05:0610:06
Sunrise05:3710:37
Sunset20:2801:28
Evening civil twilight21:0002:00

Current date and time
Zulu (UTC)  20-Jun-2019 08:40:57
Local (UTC-5)  20-Jun-2019 03:40:57
 
METAR
KCPS 
7nm SE 
200753Z 31010KT 10SM BKN017 OVC027 21/18 A2962 RMK AO2 SLP026 T02110178
KSTL 
8nm NW 
200808Z 32010KT 10SM BKN013 OVC027 20/16 A2964 RMK AO2 T02000161
KSUS 
18nm W 
200754Z AUTO 29007KT 10SM OVC013 20/18 A2964 RMK AO2 SLP030 T02000178
KALN 
18nm NE 
200815Z AUTO 31009KT 290V360 10SM OVC013 19/17 A2963 RMK AO2 T01860174
KSET 
19nm NW 
200754Z AUTO A2963 RMK AO2 SLPNO PWINO $
TAF
KCPS 
7nm SE 
200520Z 2006/2106 28008KT P6SM VCSH OVC020 FM200800 29006KT P6SM OVC015 FM201100 31009KT P6SM OVC008 FM201600 31007KT P6SM BKN020 FM201900 30007KT P6SM SCT030 FM210000 23005KT P6SM FEW250
KSTL 
8nm NW 
200520Z 2006/2112 29010KT P6SM VCSH OVC020 FM200800 29009KT P6SM OVC015 FM201100 31009KT P6SM OVC008 FM201600 31007KT P6SM BKN020 FM201900 30007KT P6SM SCT030 FM210000 23005KT P6SM FEW250
KSUS 
18nm W 
200520Z 2006/2106 28008KT P6SM VCSH OVC020 FM200800 29006KT P6SM OVC015 FM201100 31009KT P6SM OVC008 FM201600 31007KT P6SM BKN020 FM201900 30007KT P6SM SCT030 FM210000 23005KT P6SM FEW250
NOTAMs
Click for the latest NOTAMs
NOTAMs are issued by the DoD/FAA and will open in a separate window not controlled by AirNav.

 

 
 

Would you like to see your business listed on this page?

 If your business provides an interesting product or service to pilots, flight crews, aircraft, or users of the Barnes Jewish Hospital Heliport, you should consider listing it here.  To start the listing process, click on the button below
 
Add a business
 

Other Pages about Barnes Jewish Hospital Heliport

Update a link
 
Copyright © AirNav, LLC. All rights reserved. Privacy Policy  Contact